To NAV CANADA Home Page Login to a new session Search on AWWS site Feedback and Comments Disclaimer Vers la page française équivalente Tips FAQ What's new on the site To the Forecasts and Observations / NOTAM section To "File a Flight Plan" website Publications and other links Update of the User's profile FIC Telephone Numbers My Weather Data Folder Route Weather Data Regional Weather Data Local Weather Data To the Forecasts and Observations / NOTAM section
Request Generated 09/29/2016 at 03:13:34 UTC . Weather information available at that time is displayed.

METAR/TAF

LONDON/ON    

METAR CYXU 290300Z 07013G21KT 15SM FEW070 SCT140 17/14 A3008 RMK
AC2AC1 SLP186 DENSITY ALT 1100FT=
METAR CYXU 290200Z 07015G20KT 15SM SCT100 OVC130 17/13 A3006 RMK
AC4AC4 SLP181 DENSITY ALT 1200FT=
METAR CYXU 290100Z 07015KT 15SM OVC100 17/12 A3005 RMK AC8 SLP178
DENSITY ALT 1200FT=

TAF CYXU 282338Z 2900/2924 06010KT P6SM SCT050 BKN120 TEMPO 2900/2901
P6SM -SHRA BKN040
FM290600 08015G25KT P6SM SCT012 BKN040 TEMPO 2906/2909 P6SM -SHRA
BKN012 OVC040 PROB30 2907/2909 VRB20G35KT 11/2SM +TSRA BR BKN008
OVC030CB
FM290900 08015G25KT 5SM -SHRA BR BKN008 OVC015 PROB30 2909/2912
VRB20G35KT 11/2SM +TSRA BR BKN006 OVC020CB
FM291500 08020G30KT P6SM -SHRA BKN012 OVC025
RMK NXT FCST BY 290600Z=
Your time UTC time
Weather data provided by Environment Canada and NAV CANADA